Impacts TAF Board INFO
FOR SITUATIONAL AWARENESS. NOT TO BE USED FOR FLIGHT PLANNING PURPOSES.
IDs:

KLGA - New York/La Guardia, NY, US

Issued at 0523 UTC 16 Jan 2018
Updated at 0737 UTC 16 Jan 2018
Potential Impact None Slight Moderate High
Time<<16/20Z 16/21Z 16/22Z 16/23Z 17/00Z 17/01Z 17/02Z 17/03Z 17/04Z 17/05Z 17/06Z 17/07Z 17/08Z>>
Type PRVL PRVL PRVL PRVL PRVL PRVL PRVL PRVL
  [TEMP]  
PRVL
  [TEMP]  
PRVL
  [TEMP]  
PRVL PRVL PRVL
VIS >6 >6 6 6 6 2 2 2 2 2 1 1 1
CIG 20 20 20 20 20 15 15 15
  [15]  
15
  [15]  
15
  [15]  
8 8 8
Cover BKN BKN BKN BKN BKN BKN BKN BKN
  [BKN]  
BKN
  [BKN]  
BKN
  [BKN]  
OVC OVC OVC
FltCat MVFR MVFR MVFR MVFR MVFR IFR IFR IFR
  [IFR]  
IFR
  [IFR]  
IFR
  [IFR]  
IFR IFR IFR
WX -- -- -SN -SN -SN -SN -SN -SN
  [-RA -SN]  
-SN
  [-RA -SN]  
-SN
  [-RA -SN]  
-SN -SN -SN
WDir 110 110 120 120 120 VRB VRB VRB
[VRB]
VRB
[VRB]
VRB
[VRB]
60 60 60
WSpd 6 6 6 6 6 5 5 5
  [5]  
5
  [5]  
5
  [5]  
6 6 6
WGst -- -- -- -- -- -- -- --
  [--]  
--
  [--]  
--
  [--]  
-- -- --

Raw TAF
KLGA 160523Z 1606/1712 06008KT P6SM SCT015
  TEMPO 1606/1609 BKN015
  FM160900 VRB05KT P6SM BKN030
  FM161400 09006KT P6SM BKN025
  FM161800 11006KT P6SM BKN020
  FM162200 12006KT 6SM -SN BKN020
  FM170100 VRB05KT 2SM -SN BKN015
  TEMPO 1703/1706 -RASN
  FM170600 06006KT 1SM -SN OVC008
  FM170900 05007KT 1SM -SN BR OVC008


METAR Board
Radar Display
Forecast Discussion

FOR SITUATIONAL AWARENESS. NOT TO BE USED FOR FLIGHT PLANNING PURPOSES.